Time;durP1;ratioP1;P1;durP2;ratioP2;P2;SDS_P1;SDS_P2;PMS_P1;PMS_P2;Temp;Humidity;BMP_temperature;BMP_pressure;BME280_temperature;BME280_humidity;BME280_pressure;Samples;Min_cycle;Max_cycle;Signal;HPM_P1;HPM_P2
2023/06/12 00:01:47;;;;;;;15.17;7.77;;;13.80;85.20;;;;;;5012985;28;20201;-87
2023/06/12 00:04:13;;;;;;;13.80;7.40;;;13.70;85.40;;;;;;5014531;28;20662;-87
2023/06/12 00:06:38;;;;;;;9.13;7.20;;;13.60;85.50;;;;;;5013033;28;20227;-87
2023/06/12 00:09:04;;;;;;;13.87;7.77;;;13.50;85.70;;;;;;5014104;28;20169;-87
2023/06/12 00:11:30;;;;;;;12.33;7.10;;;13.50;86.00;;;;;;5012974;28;20704;-87
2023/06/12 00:13:56;;;;;;;17.20;7.87;;;13.40;86.10;;;;;;5013865;28;20237;-87
2023/06/12 00:16:22;;;;;;;14.57;7.37;;;13.40;86.20;;;;;;5014493;28;20173;-87
2023/06/12 00:18:49;;;;;;;11.10;7.17;;;13.40;86.30;;;;;;5013043;28;20196;-88
2023/06/12 00:21:15;;;;;;;13.57;6.80;;;13.30;86.40;;;;;;5012777;28;20211;-87
2023/06/12 00:23:41;;;;;;;12.93;6.90;;;13.30;86.40;;;;;;5013704;28;20190;-87
2023/06/12 00:26:07;;;;;;;13.67;7.27;;;13.30;86.50;;;;;;5012774;28;20177;-87
2023/06/12 00:28:32;;;;;;;12.90;7.40;;;13.20;86.60;;;;;;5012725;28;20169;-86
2023/06/12 00:30:58;;;;;;;9.13;6.83;;;13.30;86.70;;;;;;5012689;28;20281;-88
2023/06/12 00:33:24;;;;;;;21.60;8.33;;;13.30;86.70;;;;;;5013727;28;20193;-86
2023/06/12 00:35:51;;;;;;;10.23;7.47;;;13.30;86.60;;;;;;5012385;28;20553;-86
2023/06/12 00:38:16;;;;;;;14.20;7.33;;;13.30;86.50;;;;;;5012653;28;20208;-86
2023/06/12 00:40:42;;;;;;;14.33;7.30;;;13.30;86.50;;;;;;5013754;28;20240;-86
2023/06/12 00:43:11;;;;;;;9.50;7.27;;;13.20;86.40;;;;;;5012613;28;20197;-86
2023/06/12 00:45:37;;;;;;;7.53;6.77;;;13.20;86.40;;;;;;5013722;28;20220;-86
2023/06/12 00:48:03;;;;;;;12.17;7.03;;;13.20;86.40;;;;;;5012595;28;20552;-86
2023/06/12 00:50:29;;;;;;;12.83;7.73;;;13.20;86.50;;;;;;5013513;28;20184;-86
2023/06/12 00:52:57;;;;;;;16.00;8.00;;;13.10;86.40;;;;;;5013589;28;20197;-86
2023/06/12 00:55:23;;;;;;;11.03;7.30;;;13.10;86.50;;;;;;5012687;28;20184;-86
2023/06/12 00:57:49;;;;;;;12.87;7.63;;;13.10;86.60;;;;;;5012346;28;20561;-86
2023/06/12 01:00:17;;;;;;;14.00;7.50;;;13.10;86.50;;;;;;5013406;28;20200;-86
2023/06/12 01:02:53;;;;;;;11.20;7.23;;;13.20;86.50;;;;;;5013409;28;20185;-86
2023/06/12 01:05:32;;;;;;;17.17;7.90;;;13.10;86.50;;;;;;5012214;28;20165;-86
2023/06/12 01:08:34;;;;;;;10.63;7.00;;;13.20;86.50;;;;;;5013453;28;20181;-86
2023/06/12 01:11:08;;;;;;;12.77;7.80;;;13.10;86.40;;;;;;5013628;28;20510;-86
2023/06/12 01:13:34;;;;;;;18.23;7.63;;;13.20;86.40;;;;;;5013236;28;20601;-86
2023/06/12 01:16:00;;;;;;;14.07;7.83;;;13.20;86.40;;;;;;5013369;28;20273;-86
2023/06/12 01:18:27;;;;;;;11.00;7.17;;;13.10;86.30;;;;;;5013670;28;20220;-86
2023/06/12 01:20:55;;;;;;;15.53;8.10;;;13.10;86.20;;;;;;5012270;28;20652;-86
2023/06/12 01:23:44;;;;;;;10.90;7.10;;;13.00;86.20;;;;;;5013282;28;20244;-86
2023/06/12 01:26:42;;;;;;;13.43;7.73;;;13.00;86.40;;;;;;5012061;28;20177;-86
2023/06/12 01:29:25;;;;;;;7.87;7.07;;;13.00;86.30;;;;;;5001369;28;20200;-86
2023/06/12 01:31:56;;;;;;;17.47;7.40;;;13.10;86.50;;;;;;5012062;28;20177;-85
2023/06/12 01:34:29;;;;;;;13.70;8.17;;;13.10;86.20;;;;;;5013168;28;20179;-86
2023/06/12 01:37:29;;;;;;;11.73;6.93;;;13.00;86.20;;;;;;5016575;28;20166;-86
2023/06/12 01:39:57;;;;;;;11.97;7.53;;;12.90;86.20;;;;;;5015650;28;20211;-86
2023/06/12 01:42:27;;;;;;;12.53;7.30;;;12.90;86.30;;;;;;5017008;28;20746;-86
2023/06/12 01:44:53;;;;;;;7.47;6.67;;;12.80;86.30;;;;;;5016982;28;20575;-86
2023/06/12 01:47:20;;;;;;;8.77;6.70;;;12.80;86.50;;;;;;5016945;28;20188;-85
2023/06/12 01:49:45;;;;;;;12.53;7.10;;;12.70;86.60;;;;;;5015633;28;20243;-86
2023/06/12 01:52:11;;;;;;;11.70;7.63;;;12.70;86.60;;;;;;5015503;28;20687;-86
2023/06/12 01:54:37;;;;;;;12.80;7.47;;;12.60;86.80;;;;;;5015523;28;20205;-86
2023/06/12 01:57:03;;;;;;;9.33;7.03;;;12.60;86.80;;;;;;5016729;28;20232;-86
2023/06/12 01:59:29;;;;;;;13.37;7.30;;;12.50;87.00;;;;;;5015415;28;20235;-86
2023/06/12 02:01:54;;;;;;;15.23;8.10;;;12.50;87.00;;;;;;5016618;28;20181;-86
2023/06/12 02:04:20;;;;;;;10.60;7.37;;;12.60;87.20;;;;;;5015234;28;20232;-86
2023/06/12 02:06:46;;;;;;;12.40;7.57;;;12.50;87.10;;;;;;5015303;28;20169;-86
2023/06/12 02:09:11;;;;;;;11.87;7.57;;;12.50;87.20;;;;;;5015347;28;20173;-86
2023/06/12 02:11:37;;;;;;;9.93;7.00;;;12.40;87.30;;;;;;5016479;28;20181;-85
2023/06/12 02:14:02;;;;;;;15.67;7.17;;;12.50;87.40;;;;;;5016453;28;20200;-86
2023/06/12 02:16:28;;;;;;;9.70;6.50;;;12.40;87.50;;;;;;5015189;28;20468;-86
2023/06/12 02:18:53;;;;;;;13.97;7.43;;;12.40;87.50;;;;;;5014970;28;20173;-86
2023/06/12 02:21:19;;;;;;;10.43;7.30;;;12.40;87.60;;;;;;5016159;28;20208;-86
2023/06/12 02:23:44;;;;;;;14.23;7.60;;;12.40;87.70;;;;;;5015002;28;20535;-86
2023/06/12 02:26:10;;;;;;;9.70;6.93;;;12.30;87.60;;;;;;5015034;28;20610;-86
2023/06/12 02:28:35;;;;;;;14.93;7.30;;;12.30;87.70;;;;;;5014911;28;20184;-86
2023/06/12 02:31:03;;;;;;;11.90;7.43;;;12.30;87.80;;;;;;5016352;28;20173;-86
2023/06/12 02:33:30;;;;;;;10.10;7.47;;;12.30;87.80;;;;;;5015977;28;20193;-86
2023/06/12 02:35:55;;;;;;;9.30;6.93;;;12.30;87.90;;;;;;5016151;28;20165;-86
2023/06/12 02:38:21;;;;;;;13.10;7.87;;;12.30;87.90;;;;;;5015963;28;20554;-86
2023/06/12 02:40:46;;;;;;;7.73;6.93;;;12.30;87.90;;;;;;5016080;28;20698;-86
2023/06/12 02:43:12;;;;;;;11.93;7.37;;;12.30;87.90;;;;;;5015795;28;20709;-86
2023/06/12 02:45:37;;;;;;;14.60;7.07;;;12.30;88.00;;;;;;5015732;28;20683;-86
2023/06/12 02:48:03;;;;;;;14.67;9.50;;;12.30;88.10;;;;;;5014464;28;20548;-86
2023/06/12 02:50:29;;;;;;;10.87;7.33;;;12.30;88.20;;;;;;5015632;28;20181;-86
2023/06/12 02:52:54;;;;;;;9.23;7.17;;;12.30;88.30;;;;;;5015610;28;20263;-86
2023/06/12 02:55:20;;;;;;;14.27;7.20;;;12.30;88.40;;;;;;5015613;28;20718;-86
2023/06/12 02:57:45;;;;;;;9.77;6.97;;;12.30;88.50;;;;;;5015721;28;20200;-86
2023/06/12 03:00:13;;;;;;;11.90;6.90;;;12.30;88.40;;;;;;5015377;28;20228;-85
2023/06/12 03:02:42;;;;;;;11.23;7.40;;;12.30;88.50;;;;;;5014180;28;20255;-86
2023/06/12 03:05:12;;;;;;;11.97;7.73;;;12.30;88.60;;;;;;5014191;28;20173;-85
2023/06/12 03:07:40;;;;;;;17.80;7.80;;;12.30;88.70;;;;;;5015867;28;20154;-86
2023/06/12 03:10:06;;;;;;;10.67;7.37;;;12.30;88.80;;;;;;5015337;28;20675;-86
2023/06/12 03:12:31;;;;;;;9.77;7.43;;;12.40;88.90;;;;;;5013781;28;20220;-85
2023/06/12 03:14:58;;;;;;;12.40;7.47;;;12.40;88.90;;;;;;5014058;28;20196;-86
2023/06/12 03:17:23;;;;;;;19.67;7.30;;;12.40;88.90;;;;;;5015257;28;20584;-86
2023/06/12 03:19:49;;;;;;;15.67;8.13;;;12.30;89.00;;;;;;5014983;28;20188;-86
2023/06/12 03:22:14;;;;;;;10.50;7.40;;;12.40;89.00;;;;;;5015196;28;20232;-86
2023/06/12 03:24:40;;;;;;;22.03;8.23;;;12.40;89.10;;;;;;5013879;28;20655;-86
2023/06/12 03:27:07;;;;;;;8.83;7.07;;;12.50;89.10;;;;;;5013634;28;20165;-86
2023/06/12 03:29:32;;;;;;;11.70;7.50;;;12.40;89.00;;;;;;5013663;28;20284;-86
2023/06/12 03:31:58;;;;;;;16.83;7.30;;;12.50;89.00;;;;;;5014952;28;20654;-85
2023/06/12 03:34:24;;;;;;;9.17;6.97;;;12.50;89.10;;;;;;5014913;28;20174;-86
2023/06/12 03:36:50;;;;;;;12.07;7.70;;;12.50;89.00;;;;;;5014856;28;20540;-86
2023/06/12 03:39:15;;;;;;;11.60;7.00;;;12.60;89.00;;;;;;5013639;28;20174;-86
2023/06/12 03:41:52;;;;;;;10.07;6.90;;;12.60;88.80;;;;;;5014832;28;20692;-85
2023/06/12 03:44:18;;;;;;;11.23;6.73;;;12.70;88.70;;;;;;5014982;28;20157;-86
2023/06/12 03:46:43;;;;;;;12.20;6.83;;;12.70;88.70;;;;;;5014780;28;20223;-86
2023/06/12 03:49:09;;;;;;;10.43;6.87;;;12.80;88.60;;;;;;5013173;28;20173;-86
2023/06/12 03:51:35;;;;;;;13.63;7.23;;;12.90;88.60;;;;;;5014500;28;20173;-86
2023/06/12 03:54:01;;;;;;;11.63;7.50;;;13.00;88.40;;;;;;5013160;28;20608;-86
2023/06/12 03:56:27;;;;;;;13.67;6.97;;;13.00;88.30;;;;;;5014348;28;20185;-86
2023/06/12 03:58:52;;;;;;;9.27;6.80;;;13.10;88.30;;;;;;5013925;28;20182;-86
2023/06/12 04:01:18;;;;;;;11.57;6.80;;;13.10;88.30;;;;;;5013083;28;20343;-86
2023/06/12 04:03:45;;;;;;;8.40;6.63;;;13.20;88.10;;;;;;5012893;28;20197;-86
2023/06/12 04:06:11;;;;;;;12.43;7.43;;;13.30;88.00;;;;;;5014339;28;20172;-85
2023/06/12 04:08:37;;;;;;;12.70;7.43;;;13.30;87.90;;;;;;5014167;28;20177;-86
2023/06/12 04:11:04;;;;;;;9.87;6.67;;;13.40;87.80;;;;;;5014494;28;20174;-86
2023/06/12 04:13:29;;;;;;;9.63;7.47;;;13.50;87.60;;;;;;5013893;28;20247;-86
2023/06/12 04:15:57;;;;;;;9.77;7.50;;;13.50;87.50;;;;;;5012953;28;20189;-86
2023/06/12 04:18:23;;;;;;;11.33;7.07;;;13.60;87.30;;;;;;5014138;28;20173;-86
2023/06/12 04:20:49;;;;;;;7.97;7.10;;;13.70;87.10;;;;;;5012858;28;20215;-86
2023/06/12 04:23:16;;;;;;;9.40;7.17;;;13.80;87.00;;;;;;5014041;28;20197;-86
2023/06/12 04:25:42;;;;;;;12.47;7.37;;;13.80;86.80;;;;;;5013973;28;20174;-86
2023/06/12 04:28:13;;;;;;;11.10;7.40;;;13.90;86.70;;;;;;5013889;28;20244;-86
2023/06/12 04:30:41;;;;;;;11.17;7.07;;;14.00;86.60;;;;;;5012610;28;20502;-85
2023/06/12 04:33:07;;;;;;;11.20;7.50;;;14.10;86.50;;;;;;5012694;28;20201;-86
2023/06/12 04:35:34;;;;;;;10.43;7.20;;;14.20;86.30;;;;;;5012499;28;20187;-86
2023/06/12 04:38:00;;;;;;;9.37;7.10;;;14.20;86.00;;;;;;5013756;28;20174;-85
2023/06/12 04:40:26;;;;;;;14.13;7.00;;;14.30;85.70;;;;;;5012484;28;20635;-85
2023/06/12 04:42:56;;;;;;;7.87;6.70;;;14.40;85.50;;;;;;5013619;28;20189;-85
2023/06/12 04:45:24;;;;;;;11.93;6.07;;;14.50;85.00;;;;;;5013633;28;20276;-86
2023/06/12 04:47:50;;;;;;;11.33;8.10;;;14.70;84.40;;;;;;5013575;28;20643;-85
2023/06/12 04:50:16;;;;;;;11.90;6.70;;;14.70;83.90;;;;;;5013555;28;20235;-86
2023/06/12 04:52:41;;;;;;;11.13;6.40;;;14.80;83.40;;;;;;5012345;28;20223;-85
2023/06/12 04:55:11;;;;;;;10.17;7.37;;;14.90;83.20;;;;;;5013412;28;20260;-86
2023/06/12 04:57:39;;;;;;;8.47;6.83;;;14.90;82.10;;;;;;5013661;28;20173;-85
2023/06/12 05:00:06;;;;;;;14.80;7.57;;;15.10;82.00;;;;;;5013371;28;20216;-85
2023/06/12 05:02:33;;;;;;;8.43;6.70;;;15.10;81.10;;;;;;5012192;28;20551;-85
2023/06/12 05:05:00;;;;;;;12.83;7.33;;;15.20;80.70;;;;;;5012821;28;20604;-86
2023/06/12 05:07:26;;;;;;;10.23;7.83;;;15.20;81.00;;;;;;5013427;28;20239;-86
2023/06/12 05:09:51;;;;;;;8.77;7.37;;;15.30;80.90;;;;;;5011484;28;20216;-86
2023/06/12 05:12:17;;;;;;;8.70;7.77;;;15.30;80.10;;;;;;5011910;28;20343;-86
2023/06/12 05:14:43;;;;;;;14.18;7.20;;;15.50;80.40;;;;;;5013308;28;20181;-85
2023/06/12 05:17:09;;;;;;;12.43;7.60;;;15.50;80.20;;;;;;5012086;28;20216;-86
2023/06/12 05:19:36;;;;;;;12.95;8.48;;;15.60;80.10;;;;;;5012189;28;20177;-85
2023/06/12 05:22:01;;;;;;;15.93;8.85;;;15.70;79.30;;;;;;5013279;28;20293;-86
2023/06/12 05:24:27;;;;;;;12.07;8.18;;;15.70;78.60;;;;;;5013307;28;20256;-86
2023/06/12 05:26:52;;;;;;;17.92;9.35;;;15.80;78.60;;;;;;5012084;28;20560;-86
2023/06/12 05:29:18;;;;;;;13.52;8.32;;;15.90;77.60;;;;;;5013252;28;20179;-86
2023/06/12 05:31:44;;;;;;;10.98;8.40;;;15.90;76.70;;;;;;5011873;28;20192;-86
2023/06/12 05:34:10;;;;;;;10.52;7.93;;;16.00;76.70;;;;;;5013259;28;20257;-86
2023/06/12 05:36:36;;;;;;;12.30;8.48;;;16.10;77.10;;;;;;5013669;28;20170;-86
2023/06/12 05:39:03;;;;;;;9.77;7.63;;;16.20;76.30;;;;;;5012025;28;20709;-86
2023/06/12 05:41:28;;;;;;;11.50;7.60;;;16.30;76.30;;;;;;5013087;28;20197;-86
2023/06/12 05:43:54;;;;;;;10.73;7.82;;;16.40;75.90;;;;;;5011862;28;20238;-86
2023/06/12 05:46:20;;;;;;;14.00;8.73;;;16.60;75.90;;;;;;5011961;28;20552;-86
2023/06/12 05:48:45;;;;;;;10.93;8.40;;;16.60;75.90;;;;;;5011845;28;20165;-86
2023/06/12 05:51:11;;;;;;;13.13;7.85;;;16.70;75.30;;;;;;5011827;28;20188;-86
2023/06/12 05:53:36;;;;;;;11.57;7.75;;;16.80;74.70;;;;;;5013267;28;20247;-86
2023/06/12 05:56:02;;;;;;;21.17;8.65;;;16.90;74.70;;;;;;5013329;28;20178;-86
2023/06/12 05:58:27;;;;;;;13.13;8.55;;;17.10;74.40;;;;;;5013160;28;20177;-86
2023/06/12 06:00:55;;;;;;;10.93;8.40;;;17.20;73.90;;;;;;5013169;28;20208;-86
2023/06/12 06:03:23;;;;;;;8.85;8.05;;;17.30;73.20;;;;;;5011764;28;20197;-86
2023/06/12 06:05:49;;;;;;;13.55;8.68;;;17.30;73.40;;;;;;5012846;28;20169;-86
2023/06/12 06:08:15;;;;;;;11.25;8.63;;;17.20;73.60;;;;;;5011778;28;20264;-85
2023/06/12 06:10:41;;;;;;;9.82;7.90;;;17.20;74.40;;;;;;5013846;28;20682;-86
2023/06/12 06:13:07;;;;;;;9.57;7.72;;;17.30;74.80;;;;;;5013451;28;20247;-86
2023/06/12 06:15:33;;;;;;;9.35;8.38;;;17.50;73.80;;;;;;5013375;28;20188;-86
2023/06/12 06:17:58;;;;;;;12.25;8.48;;;17.60;72.40;;;;;;5013343;28;20181;-86
2023/06/12 06:20:24;;;;;;;12.77;9.10;;;17.90;72.70;;;;;;5013778;28;20197;-86
2023/06/12 06:22:50;;;;;;;12.68;9.35;;;18.10;71.20;;;;;;5015893;28;20205;-86
2023/06/12 06:25:17;;;;;;;11.77;10.52;;;18.20;69.60;;;;;;5015627;28;20308;-85
2023/06/12 06:27:42;;;;;;;12.75;10.63;;;18.40;68.60;;;;;;5016384;28;20644;-86
2023/06/12 06:30:08;;;;;;;12.02;11.00;;;18.60;68.10;;;;;;5015562;28;20177;-87
2023/06/12 06:32:34;;;;;;;16.40;10.80;;;18.70;67.70;;;;;;5016466;28;20193;-86
2023/06/12 06:34:59;;;;;;;16.63;10.88;;;18.90;67.70;;;;;;5016202;28;20268;-86
2023/06/12 06:37:25;;;;;;;15.23;11.65;;;19.00;66.90;;;;;;5015121;28;20204;-86
2023/06/12 06:39:50;;;;;;;15.05;12.73;;;19.20;66.50;;;;;;5016368;28;20189;-86
2023/06/12 06:42:16;;;;;;;14.02;12.73;;;19.30;65.00;;;;;;5016660;28;20633;-86
2023/06/12 06:44:41;;;;;;;14.90;12.23;;;19.40;65.90;;;;;;5014767;28;20179;-86
2023/06/12 06:47:11;;;;;;;14.85;13.32;;;19.50;64.30;;;;;;5016266;28;20249;-87
2023/06/12 06:49:37;;;;;;;23.70;21.63;;;19.60;64.90;;;;;;5016023;28;20287;-87
2023/06/12 06:52:04;;;;;;;26.92;24.60;;;19.50;65.30;;;;;;5015861;28;20189;-87
2023/06/12 06:54:30;;;;;;;26.77;24.42;;;19.50;64.50;;;;;;5014626;28;20189;-86
2023/06/12 06:56:56;;;;;;;27.15;24.35;;;19.70;65.10;;;;;;5014346;28;20226;-86
2023/06/12 06:59:22;;;;;;;25.45;23.40;;;19.80;64.80;;;;;;5014488;28;20189;-86
2023/06/12 07:01:48;;;;;;;26.65;24.48;;;19.90;63.50;;;;;;5015453;28;20197;-86
2023/06/12 07:04:13;;;;;;;26.98;24.65;;;20.10;63.80;;;;;;5015776;28;20192;-87
2023/06/12 07:06:39;;;;;;;26.88;24.58;;;20.20;64.20;;;;;;5015584;28;20174;-86
2023/06/12 07:09:05;;;;;;;26.25;23.67;;;20.30;63.40;;;;;;5014406;28;20176;-87
2023/06/12 07:11:30;;;;;;;25.88;23.40;;;20.60;63.10;;;;;;5015634;28;20177;-87
2023/06/12 07:13:56;;;;;;;21.15;19.08;;;20.70;62.40;;;;;;5014480;28;20212;-86
2023/06/12 07:16:21;;;;;;;21.00;14.70;;;20.90;61.50;;;;;;5014255;28;20181;-86
2023/06/12 07:18:47;;;;;;;20.30;15.63;;;21.10;60.80;;;;;;5015277;28;20660;-87
2023/06/12 07:21:14;;;;;;;19.33;15.90;;;21.20;59.70;;;;;;5013938;28;20205;-87
2023/06/12 07:23:40;;;;;;;19.83;16.70;;;21.30;58.60;;;;;;5015006;28;20194;-87
2023/06/12 07:26:05;;;;;;;17.80;16.05;;;21.50;58.40;;;;;;5015385;28;20173;-87
2023/06/12 07:28:31;;;;;;;17.80;16.30;;;21.70;59.20;;;;;;5015226;28;20173;-87
2023/06/12 07:30:56;;;;;;;21.25;16.23;;;21.90;58.50;;;;;;5015003;28;20239;-87
2023/06/12 07:33:22;;;;;;;17.83;15.93;;;22.10;58.40;;;;;;5014280;28;20205;-88
2023/06/12 07:35:47;;;;;;;17.15;15.25;;;22.20;58.00;;;;;;5013599;28;20185;-87
2023/06/12 07:38:13;;;;;;;17.27;15.15;;;22.40;57.60;;;;;;5013614;28;20647;-87
2023/06/12 07:40:39;;;;;;;18.92;14.75;;;22.50;55.60;;;;;;5013406;28;20205;-87
2023/06/12 07:43:05;;;;;;;19.10;15.63;;;22.70;54.80;;;;;;5013512;28;20569;-87
2023/06/12 07:45:31;;;;;;;17.10;15.23;;;22.70;53.80;;;;;;5014896;28;20615;-87
2023/06/12 07:47:57;;;;;;;22.67;14.70;;;22.80;53.40;;;;;;5014750;28;20179;-86
2023/06/12 07:50:23;;;;;;;17.05;15.43;;;22.90;53.60;;;;;;5014672;28;20175;-86
2023/06/12 07:52:49;;;;;;;17.85;15.65;;;23.00;56.40;;;;;;5014445;28;20713;-88
2023/06/12 07:55:16;;;;;;;17.65;15.02;;;23.00;51.70;;;;;;5014777;28;20173;-87
2023/06/12 07:57:41;;;;;;;15.88;14.57;;;23.20;51.00;;;;;;5014546;28;20264;-87
2023/06/12 08:00:07;;;;;;;15.93;14.65;;;23.30;50.60;;;;;;5013071;28;20287;-86
2023/06/12 08:02:34;;;;;;;15.60;14.25;;;23.50;51.60;;;;;;5014260;28;20189;-87
2023/06/12 08:05:00;;;;;;;21.23;19.50;;;23.60;48.70;;;;;;5014278;28;20256;-87
2023/06/12 08:07:26;;;;;;;22.27;20.23;;;23.70;50.60;;;;;;5013201;28;20260;-87
2023/06/12 08:09:53;;;;;;;22.73;20.98;;;23.80;50.10;;;;;;5013110;28;20200;-87
2023/06/12 08:12:19;;;;;;;23.45;20.70;;;23.90;48.40;;;;;;5014066;28;20213;-88
2023/06/12 08:14:47;;;;;;;22.70;20.33;;;24.00;47.90;;;;;;5014191;28;20589;-88
2023/06/12 08:17:13;;;;;;;24.08;21.42;;;24.20;48.10;;;;;;5013022;28;20180;-88
2023/06/12 08:19:40;;;;;;;22.95;20.98;;;24.30;49.80;;;;;;5014223;28;20193;-90
2023/06/12 08:22:07;;;;;;;23.15;20.88;;;24.50;49.60;;;;;;5014326;28;20629;-87
2023/06/12 08:24:35;;;;;;;25.77;21.40;;;24.60;47.60;;;;;;5012766;28;20550;-89
2023/06/12 08:27:01;;;;;;;16.40;14.70;;;24.80;48.50;;;;;;5014055;28;20193;-89
2023/06/12 08:29:26;;;;;;;16.02;14.43;;;25.00;45.70;;;;;;5013011;28;20636;-89
2023/06/12 08:31:52;;;;;;;18.88;14.20;;;25.10;45.90;;;;;;5013354;28;20173;-90
2023/06/12 08:34:18;;;;;;;15.90;13.90;;;25.20;45.70;;;;;;5013846;28;20185;-87
2023/06/12 08:36:44;;;;;;;17.02;14.68;;;25.20;45.60;;;;;;5012573;28;20201;-87
2023/06/12 08:39:09;;;;;;;16.98;14.90;;;25.20;45.90;;;;;;5012701;28;20192;-88
2023/06/12 08:41:40;;;;;;;17.63;15.82;;;25.20;43.10;;;;;;5012536;28;20197;-87
2023/06/12 08:44:08;;;;;;;16.08;14.55;;;25.30;44.70;;;;;;5012428;28;20173;-87
2023/06/12 08:46:34;;;;;;;16.30;15.00;;;25.40;44.80;;;;;;5013867;28;20185;-87
2023/06/12 08:49:00;;;;;;;16.25;14.68;;;25.40;43.20;;;;;;5013825;28;20663;-87
2023/06/12 08:51:27;;;;;;;18.95;14.82;;;25.40;42.90;;;;;;5012614;28;20234;-88
2023/06/12 08:53:54;;;;;;;15.90;14.27;;;25.50;44.40;;;;;;5012389;28;20197;-87
2023/06/12 08:56:20;;;;;;;20.52;14.73;;;25.70;44.30;;;;;;5012652;28;20205;-87
2023/06/12 08:58:46;;;;;;;16.88;15.18;;;25.80;43.90;;;;;;5013633;28;20593;-87
2023/06/12 09:01:12;;;;;;;17.75;15.85;;;25.90;43.00;;;;;;5013461;28;20219;-88
2023/06/12 09:03:46;;;;;;;16.60;15.10;;;26.00;43.20;;;;;;5012760;28;20193;-87
2023/06/12 09:06:15;;;;;;;16.50;14.60;;;26.20;40.50;;;;;;5012836;28;20511;-89
2023/06/12 09:08:41;;;;;;;16.08;14.65;;;26.20;40.70;;;;;;5012261;28;20205;-87
2023/06/12 09:11:07;;;;;;;16.95;15.00;;;26.40;41.10;;;;;;5013465;28;20527;-86
2023/06/12 09:13:42;;;;;;;19.63;14.50;;;26.40;41.70;;;;;;5013153;28;20710;-86
2023/06/12 09:16:12;;;;;;;16.42;15.13;;;26.60;42.30;;;;;;5012721;28;20180;-87
2023/06/12 09:18:51;;;;;;;17.10;14.68;;;26.60;41.10;;;;;;5013630;28;20501;-87
2023/06/12 09:21:17;;;;;;;16.85;15.18;;;26.40;41.70;;;;;;4996318;28;20208;-88
2023/06/12 09:23:50;;;;;;;17.25;15.60;;;26.70;42.20;;;;;;5011809;28;20189;-88
2023/06/12 09:26:18;;;;;;;25.85;15.93;;;26.90;40.30;;;;;;5013278;28;20521;-88
2023/06/12 09:28:44;;;;;;;16.98;14.85;;;26.90;41.20;;;;;;5011945;28;20550;-88
2023/06/12 09:31:10;;;;;;;15.95;14.48;;;27.10;40.90;;;;;;5013445;28;20267;-88
2023/06/12 09:33:39;;;;;;;16.60;14.98;;;27.20;38.90;;;;;;5012152;28;20235;-88
2023/06/12 09:36:05;;;;;;;20.85;15.40;;;27.30;38.80;;;;;;5013444;28;20177;-88
2023/06/12 09:38:32;;;;;;;18.58;14.95;;;27.20;37.50;;;;;;5013428;28;20173;-88
2023/06/12 09:41:00;;;;;;;16.38;15.00;;;27.30;38.80;;;;;;5011922;28;20208;-88
2023/06/12 09:43:28;;;;;;;16.63;14.98;;;27.40;41.10;;;;;;5011820;28;20621;-88
2023/06/12 09:45:54;;;;;;;20.52;15.07;;;27.50;38.00;;;;;;5011804;28;20170;-88
2023/06/12 09:48:20;;;;;;;18.35;16.38;;;27.60;37.00;;;;;;5012995;28;20169;-88
2023/06/12 09:50:46;;;;;;;16.38;14.85;;;27.60;37.80;;;;;;5011849;28;20173;-88
2023/06/12 09:53:16;;;;;;;15.82;14.30;;;27.70;38.00;;;;;;5012967;28;20711;-88
2023/06/12 09:55:44;;;;;;;15.82;14.65;;;27.60;36.50;;;;;;5012216;28;20185;-87
2023/06/12 09:58:13;;;;;;;16.15;14.85;;;27.50;37.10;;;;;;5015021;28;20207;-88
2023/06/12 10:00:39;;;;;;;17.25;15.68;;;27.40;36.80;;;;;;5016295;28;20430;-88
2023/06/12 10:03:09;;;;;;;17.27;15.35;;;27.50;36.10;;;;;;5015333;28;20197;-88
2023/06/12 10:05:38;;;;;;;16.25;15.00;;;27.60;36.70;;;;;;5015369;28;20165;-87
2023/06/12 10:08:05;;;;;;;17.00;15.48;;;27.40;35.90;;;;;;5016780;28;20174;-87
2023/06/12 10:10:33;;;;;;;18.75;15.52;;;27.40;35.90;;;;;;5015264;28;20204;-88
2023/06/12 10:13:01;;;;;;;16.70;15.15;;;27.50;35.80;;;;;;5016216;28;20735;-87
2023/06/12 10:15:27;;;;;;;16.85;15.23;;;27.50;36.00;;;;;;5016336;28;20268;-88
2023/06/12 10:17:53;;;;;;;16.83;15.27;;;27.50;35.10;;;;;;5016592;28;20173;-88
2023/06/12 10:20:20;;;;;;;16.23;15.13;;;27.50;35.00;;;;;;5016239;28;20259;-88
2023/06/12 10:22:46;;;;;;;16.55;15.15;;;27.50;35.70;;;;;;5014911;28;20199;-87
2023/06/12 10:25:14;;;;;;;18.30;15.85;;;27.50;36.00;;;;;;5016627;28;20227;-88
2023/06/12 10:27:41;;;;;;;17.30;15.35;;;27.70;37.70;;;;;;5014895;28;20185;-87
2023/06/12 10:30:11;;;;;;;16.52;14.68;;;27.70;34.70;;;;;;5014810;28;20675;-88
2023/06/12 10:32:38;;;;;;;18.83;15.50;;;27.70;34.60;;;;;;5014983;28;20276;-88
2023/06/12 10:35:04;;;;;;;17.10;15.65;;;27.80;36.20;;;;;;5016088;28;20169;-87
2023/06/12 10:37:46;;;;;;;17.48;15.98;;;27.80;36.00;;;;;;5014706;28;20181;-88
2023/06/12 10:40:22;;;;;;;17.38;15.75;;;27.70;34.50;;;;;;5014601;28;20347;-88
2023/06/12 10:43:00;;;;;;;16.23;14.70;;;27.80;35.00;;;;;;5016010;28;20200;-87
2023/06/12 10:45:29;;;;;;;15.90;14.45;;;27.80;34.00;;;;;;5014626;28;20161;-87
2023/06/12 10:48:06;;;;;;;15.65;14.13;;;27.80;33.00;;;;;;5015752;28;20177;-88
2023/06/12 10:50:53;;;;;;;15.40;14.23;;;27.30;33.70;;;;;;5015944;28;20539;-88
2023/06/12 10:53:29;;;;;;;15.50;14.40;;;27.30;34.60;;;;;;5014424;28;20201;-87
2023/06/12 10:56:05;;;;;;;16.70;14.90;;;27.50;34.00;;;;;;5015583;28;20173;-88
2023/06/12 10:58:36;;;;;;;15.50;14.23;;;27.60;32.50;;;;;;5014458;28;20169;-88
2023/06/12 11:01:12;;;;;;;15.52;14.20;;;27.70;35.10;;;;;;5014170;28;20212;-88
2023/06/12 11:03:39;;;;;;;15.68;14.13;;;27.90;35.10;;;;;;5015379;28;20189;-88
2023/06/12 11:06:13;;;;;;;16.63;14.93;;;27.90;33.80;;;;;;5014175;28;20188;-88
2023/06/12 11:08:42;;;;;;;15.00;13.70;;;27.90;34.40;;;;;;5012986;28;20278;-88
2023/06/12 11:11:11;;;;;;;18.63;15.10;;;28.00;34.70;;;;;;5015310;28;20174;-87
2023/06/12 11:13:41;;;;;;;16.95;15.23;;;28.20;35.00;;;;;;5015204;28;20248;-87
2023/06/12 11:16:11;;;;;;;16.70;15.07;;;28.10;32.60;;;;;;5014034;28;20209;-87
2023/06/12 11:18:37;;;;;;;16.35;14.90;;;28.00;33.10;;;;;;5013949;28;20169;-87
2023/06/12 11:21:03;;;;;;;16.83;15.20;;;27.90;32.70;;;;;;5015086;28;20197;-87
2023/06/12 11:23:29;;;;;;;16.48;14.73;;;28.10;33.30;;;;;;5013792;28;20196;-88
2023/06/12 11:25:57;;;;;;;16.75;15.35;;;28.20;33.50;;;;;;5013975;28;20177;-88
2023/06/12 11:28:23;;;;;;;15.63;14.63;;;28.20;31.40;;;;;;5013854;28;20287;-88
2023/06/12 11:30:56;;;;;;;18.45;15.60;;;28.30;33.10;;;;;;5013652;28;20173;-88
2023/06/12 11:33:23;;;;;;;16.27;14.77;;;28.60;31.40;;;;;;5014939;28;20272;-88
2023/06/12 11:35:50;;;;;;;16.48;15.07;;;28.50;31.60;;;;;;5013664;28;20653;-88
2023/06/12 11:38:23;;;;;;;16.80;15.02;;;28.50;32.60;;;;;;5013937;28;20264;-88
2023/06/12 11:40:53;;;;;;;16.38;14.77;;;28.40;31.00;;;;;;5014859;28;20284;-88
2023/06/12 11:43:21;;;;;;;17.05;15.32;;;28.70;32.40;;;;;;5013559;28;20219;-88
2023/06/12 11:45:48;;;;;;;16.42;14.95;;;28.70;30.80;;;;;;5013422;28;20264;-88
2023/06/12 11:48:16;;;;;;;16.13;14.73;;;28.50;31.30;;;;;;5014693;28;20255;-88
2023/06/12 11:50:44;;;;;;;17.08;15.05;;;28.60;32.20;;;;;;5013428;28;20185;-88
2023/06/12 11:53:11;;;;;;;16.67;14.93;;;28.70;31.50;;;;;;5014412;28;20208;-87
2023/06/12 11:55:36;;;;;;;15.10;13.85;;;28.60;31.70;;;;;;5014618;28;20200;-87
2023/06/12 11:58:03;;;;;;;15.15;14.15;;;28.20;30.00;;;;;;5013350;28;20537;-87
2023/06/12 12:00:34;;;;;;;21.10;13.90;;;28.20;31.20;;;;;;5014816;28;20570;-88
2023/06/12 12:03:02;;;;;;;15.30;13.80;;;28.40;31.10;;;;;;5013740;28;20229;-88
2023/06/12 12:05:34;;;;;;;14.80;13.57;;;28.50;31.30;;;;;;5013136;28;20566;-88
2023/06/12 12:08:02;;;;;;;16.08;14.52;;;28.70;32.50;;;;;;5013178;28;20180;-88
2023/06/12 12:10:28;;;;;;;15.13;13.93;;;28.70;29.90;;;;;;5014233;28;20176;-88
2023/06/12 12:12:59;;;;;;;15.05;13.95;;;28.70;31.00;;;;;;5012914;28;20299;-88
2023/06/12 12:15:26;;;;;;;15.55;14.43;;;28.80;30.30;;;;;;5014210;28;20181;-88
2023/06/12 12:17:52;;;;;;;15.00;13.75;;;29.10;28.80;;;;;;5014396;28;20204;-88
2023/06/12 12:20:21;;;;;;;14.48;13.35;;;29.30;28.60;;;;;;5012410;28;20210;-88
2023/06/12 12:22:52;;;;;;;14.05;12.85;;;29.20;27.90;;;;;;5014060;28;20189;-88
2023/06/12 12:25:23;;;;;;;16.17;14.73;;;28.80;29.00;;;;;;5014054;28;20229;-88
2023/06/12 12:27:50;;;;;;;15.88;14.48;;;28.60;29.20;;;;;;5012756;28;20168;-87
2023/06/12 12:30:17;;;;;;;14.40;13.30;;;28.40;28.00;;;;;;5012746;28;20185;-87
2023/06/12 12:32:48;;;;;;;15.43;14.25;;;28.30;29.30;;;;;;5013829;28;20216;-87
2023/06/12 12:35:17;;;;;;;16.73;14.98;;;28.20;29.90;;;;;;5014081;28;20165;-88